createdAt,value
2018-12-10T00:01:21.460Z,7.20
2018-12-10T00:03:50.413Z,7.10
2018-12-10T00:06:19.386Z,7.10
2018-12-10T00:08:48.483Z,7.00
2018-12-10T00:11:17.491Z,7.10
2018-12-10T00:13:46.496Z,7.20
2018-12-10T00:16:15.502Z,7.20
2018-12-10T00:18:44.458Z,7.10
2018-12-10T00:21:13.454Z,7.20
2018-12-10T00:23:42.394Z,7.20
2018-12-10T00:26:11.367Z,7.10
2018-12-10T00:28:40.331Z,7.20
2018-12-10T00:31:09.289Z,7.20
2018-12-10T00:33:38.249Z,7.20
2018-12-10T00:36:07.282Z,7.20
2018-12-10T00:38:36.254Z,7.20
2018-12-10T00:41:05.282Z,7.20
2018-12-10T00:43:34.287Z,7.20
2018-12-10T00:46:03.415Z,7.00
2018-12-10T00:48:32.424Z,7.00
2018-12-10T00:51:01.457Z,7.00
2018-12-10T00:53:30.494Z,7.00
2018-12-10T00:55:59.450Z,7.10
2018-12-10T00:58:28.444Z,7.10
2018-12-10T01:00:57.360Z,7.10
2018-12-10T01:03:26.341Z,7.10
2018-12-10T01:05:55.387Z,7.20
2018-12-10T01:08:24.429Z,7.20
2018-12-10T01:10:53.395Z,7.30
2018-12-10T01:13:22.419Z,7.30
2018-12-10T01:15:51.382Z,7.20
2018-12-10T01:18:20.374Z,7.10
2018-12-10T01:20:49.301Z,7.20
2018-12-10T01:23:18.272Z,7.20
2018-12-10T01:25:47.279Z,7.20
2018-12-10T01:28:16.276Z,7.20
2018-12-10T01:30:45.266Z,7.30
2018-12-10T01:33:14.234Z,7.20
2018-12-10T01:35:43.197Z,7.20
2018-12-10T01:38:12.146Z,7.10
2018-12-10T01:40:41.082Z,7.10
2018-12-10T01:43:10.196Z,7.10
2018-12-10T01:45:39.335Z,7.10
2018-12-10T01:48:08.297Z,7.10
2018-12-10T01:50:37.625Z,7.10
2018-12-10T01:53:06.777Z,7.00
2018-12-10T01:55:35.729Z,7.00
2018-12-10T01:58:04.814Z,7.00
2018-12-10T02:00:33.772Z,7.00
2018-12-10T02:03:02.699Z,7.00
2018-12-10T02:05:31.665Z,7.00
2018-12-10T02:08:00.665Z,6.90
2018-12-10T02:10:29.639Z,6.70
2018-12-10T02:12:58.662Z,6.80
2018-12-10T02:15:27.620Z,6.80
2018-12-10T02:17:56.647Z,6.90
2018-12-10T02:20:25.728Z,6.80
2018-12-10T02:22:54.682Z,6.90
2018-12-10T02:25:23.641Z,6.90
2018-12-10T02:27:52.657Z,6.80
2018-12-10T02:30:21.617Z,6.80
2018-12-10T02:32:50.607Z,6.80
2018-12-10T02:35:19.549Z,6.80
2018-12-10T02:37:48.523Z,6.80
2018-12-10T02:40:17.576Z,6.80
2018-12-10T02:42:46.575Z,6.60
2018-12-10T02:45:15.522Z,6.70
2018-12-10T02:47:44.637Z,6.80
2018-12-10T02:50:13.600Z,6.80
2018-12-10T02:52:42.559Z,6.80
2018-12-10T02:55:11.529Z,6.80
2018-12-10T02:57:40.535Z,6.80
2018-12-10T03:00:09.535Z,6.80
2018-12-10T03:02:38.490Z,6.80
2018-12-10T03:05:07.539Z,6.90
2018-12-10T03:07:36.488Z,6.80
2018-12-10T03:10:05.976Z,6.80
2018-12-10T03:12:34.963Z,6.80
2018-12-10T03:15:04.001Z,6.80
2018-12-10T03:17:33.007Z,6.80
2018-12-10T03:20:02.035Z,6.80
2018-12-10T03:22:30.981Z,6.60
2018-12-10T03:25:00.059Z,6.80
2018-12-10T03:27:29.006Z,6.70
2018-12-10T03:29:58.033Z,6.70
2018-12-10T03:32:27.122Z,6.70
2018-12-10T03:34:56.174Z,6.70
2018-12-10T03:37:25.171Z,6.70
2018-12-10T03:39:54.137Z,6.70
2018-12-10T03:42:23.057Z,6.60
2018-12-10T03:44:52.023Z,6.60
2018-12-10T03:47:21.107Z,6.60
2018-12-10T03:49:50.138Z,6.60
2018-12-10T03:52:19.132Z,6.60
2018-12-10T03:54:48.205Z,6.60
2018-12-10T03:57:17.199Z,6.70
2018-12-10T03:59:46.154Z,6.70
2018-12-10T04:02:15.235Z,6.60
2018-12-10T04:04:44.224Z,6.50
2018-12-10T04:07:13.167Z,6.50
2018-12-10T04:09:42.108Z,6.50
2018-12-10T04:12:11.081Z,6.60
2018-12-10T04:14:40.031Z,6.60
2018-12-10T04:17:09.015Z,6.60
2018-12-10T04:19:38.097Z,6.60
2018-12-10T04:22:07.046Z,6.60
2018-12-10T04:24:36.010Z,6.60
2018-12-10T04:27:05.124Z,6.60
2018-12-10T04:29:34.103Z,6.60
2018-12-10T04:32:03.062Z,6.60
2018-12-10T04:34:32.028Z,6.60
2018-12-10T04:37:01.031Z,6.50
2018-12-10T04:39:29.975Z,6.60
2018-12-10T04:41:58.969Z,6.60
2018-12-10T04:44:27.932Z,6.60
2018-12-10T04:46:56.894Z,6.50
2018-12-10T04:49:25.864Z,6.50
2018-12-10T04:51:54.803Z,6.50
2018-12-10T04:54:23.780Z,6.60
2018-12-10T04:56:52.717Z,6.50
2018-12-10T04:59:21.715Z,6.40
2018-12-10T05:01:50.668Z,6.50
2018-12-10T05:04:19.638Z,6.50
2018-12-10T05:06:48.549Z,6.40
2018-12-10T05:09:17.579Z,6.50
2018-12-10T05:11:46.534Z,6.50
2018-12-10T05:14:15.497Z,6.50
2018-12-10T05:16:44.675Z,6.40
2018-12-10T05:19:13.699Z,6.50
2018-12-10T05:21:42.650Z,6.50
2018-12-10T05:24:11.620Z,6.40
2018-12-10T05:26:40.591Z,6.40
2018-12-10T05:29:09.687Z,6.40
2018-12-10T05:31:38.644Z,6.40
2018-12-10T05:34:07.578Z,6.50
2018-12-10T05:36:36.565Z,6.50
2018-12-10T05:39:07.194Z,6.40
2018-12-10T05:41:36.286Z,6.50
2018-12-10T05:44:05.227Z,6.50
2018-12-10T05:46:34.183Z,6.40
2018-12-10T05:49:03.141Z,6.40
2018-12-10T05:51:32.143Z,6.40
2018-12-10T05:54:01.123Z,6.40
2018-12-10T05:56:30.145Z,6.30
2018-12-10T05:58:59.292Z,6.30
2018-12-10T06:01:28.390Z,6.40
2018-12-10T06:03:57.354Z,6.30
2018-12-10T06:06:26.385Z,6.30
2018-12-10T06:08:55.418Z,6.30
2018-12-10T06:11:24.476Z,6.30
2018-12-10T06:13:53.434Z,6.30
2018-12-10T06:16:22.391Z,6.20
2018-12-10T06:18:51.368Z,6.20
2018-12-10T06:21:20.342Z,6.20
2018-12-10T06:23:49.260Z,6.20
2018-12-10T06:26:18.222Z,6.20
2018-12-10T06:28:47.236Z,6.30
2018-12-10T06:31:16.198Z,6.30
2018-12-10T06:33:45.241Z,6.40
2018-12-10T06:36:14.203Z,6.40
2018-12-10T06:38:43.194Z,6.40
2018-12-10T06:41:12.309Z,6.30
2018-12-10T06:43:41.267Z,6.30
2018-12-10T06:46:10.209Z,6.30
2018-12-10T06:48:39.241Z,6.40
2018-12-10T06:51:08.221Z,6.50
2018-12-10T06:53:37.173Z,6.40
2018-12-10T06:56:06.152Z,6.40
2018-12-10T06:58:35.129Z,6.40
2018-12-10T07:01:04.149Z,6.40
2018-12-10T07:03:33.133Z,6.40
2018-12-10T07:06:02.122Z,6.40
2018-12-10T07:08:31.246Z,6.40
2018-12-10T07:11:00.812Z,6.40
2018-12-10T07:13:29.855Z,6.40
2018-12-10T07:15:58.793Z,6.30
2018-12-10T07:18:27.786Z,6.20
2018-12-10T07:20:56.690Z,6.00
2018-12-10T07:23:25.689Z,6.00
2018-12-10T07:25:54.690Z,6.00
2018-12-10T07:28:23.657Z,6.00
2018-12-10T07:30:52.811Z,6.10
2018-12-10T07:33:21.884Z,6.10
2018-12-10T07:35:50.841Z,6.20
2018-12-10T07:38:19.951Z,6.20
2018-12-10T07:40:49.002Z,6.00
2018-12-10T07:43:18.081Z,6.00
2018-12-10T07:45:47.411Z,6.00
2018-12-10T07:48:16.456Z,6.10
2018-12-10T07:50:45.538Z,6.20
2018-12-10T07:53:14.607Z,6.20
2018-12-10T07:55:43.548Z,6.30
2018-12-10T07:58:12.547Z,6.30
2018-12-10T08:00:41.478Z,6.20
2018-12-10T08:03:10.488Z,6.20
2018-12-10T08:05:39.566Z,6.20
2018-12-10T08:08:08.615Z,6.20
2018-12-10T08:10:37.660Z,6.40
2018-12-10T08:13:06.580Z,6.30
2018-12-10T08:15:35.610Z,6.00
2018-12-10T08:18:04.704Z,6.10
2018-12-10T08:20:34.351Z,5.80
2018-12-10T08:23:03.406Z,5.90
2018-12-10T08:25:32.666Z,6.10
2018-12-10T08:28:01.627Z,6.10
2018-12-10T08:30:30.606Z,6.00
2018-12-10T08:32:59.665Z,6.30
2018-12-10T08:35:28.651Z,6.60
2018-12-10T08:37:57.643Z,6.90
2018-12-10T08:40:26.820Z,7.20
2018-12-10T08:42:55.785Z,7.50
2018-12-10T08:45:24.872Z,7.30
2018-12-10T08:47:54.282Z,7.30
2018-12-10T08:50:23.334Z,7.30
2018-12-10T08:52:52.375Z,7.30
2018-12-10T08:55:21.647Z,7.00
2018-12-10T08:57:50.629Z,6.80
2018-12-10T09:00:19.679Z,6.80
2018-12-10T09:02:48.631Z,6.90
2018-12-10T09:05:17.606Z,6.90
2018-12-10T09:07:46.585Z,6.90
2018-12-10T09:10:15.702Z,6.90
2018-12-10T09:12:47.086Z,6.90
2018-12-10T09:15:15.631Z,6.90
2018-12-10T09:17:44.662Z,6.80
2018-12-10T09:20:14.007Z,6.90
2018-12-10T09:22:43.046Z,7.00
2018-12-10T09:25:12.052Z,6.80
2018-12-10T09:27:41.095Z,6.90
2018-12-10T09:30:13.999Z,7.00
2018-12-10T09:32:43.160Z,7.00
2018-12-10T09:35:12.168Z,7.00
2018-12-10T09:37:41.087Z,7.00
2018-12-10T09:40:10.415Z,6.90
2018-12-10T09:42:39.357Z,7.00
2018-12-10T09:45:08.799Z,7.00
2018-12-10T09:47:38.155Z,7.00
2018-12-10T09:50:08.149Z,7.00
2018-12-10T09:52:37.291Z,7.00
2018-12-10T09:55:06.266Z,7.00
2018-12-10T09:57:35.341Z,7.10
2018-12-10T10:00:04.779Z,7.20
2018-12-10T10:02:33.737Z,7.30
2018-12-10T10:05:02.773Z,7.30
2018-12-10T10:07:32.706Z,7.40
2018-12-10T10:10:01.672Z,7.50
2018-12-10T10:12:30.810Z,7.50
2018-12-10T10:14:59.767Z,7.50
2018-12-10T10:17:28.766Z,7.60
2018-12-10T10:19:57.710Z,7.50
2018-12-10T10:22:26.659Z,7.70
2018-12-10T10:24:55.615Z,7.70
2018-12-10T10:27:24.597Z,7.60
2018-12-10T10:29:53.541Z,7.50
2018-12-10T10:32:22.551Z,7.40
2018-12-10T10:34:51.870Z,7.40
2018-12-10T10:37:20.846Z,7.30
2018-12-10T10:39:49.861Z,7.30
2018-12-10T10:42:19.339Z,7.20
2018-12-10T10:44:48.331Z,7.20
2018-12-10T10:47:17.361Z,7.20
2018-12-10T10:49:46.369Z,7.30
2018-12-10T10:52:15.483Z,7.30
2018-12-10T10:54:44.451Z,7.40
2018-12-10T10:57:13.663Z,7.30
2018-12-10T10:59:42.602Z,7.30
2018-12-10T11:02:16.972Z,7.30
2018-12-10T11:04:45.901Z,7.40
2018-12-10T11:07:15.124Z,7.30
2018-12-10T11:09:44.183Z,7.30
2018-12-10T11:12:13.144Z,7.10
2018-12-10T11:14:42.189Z,6.90
2018-12-10T11:17:11.198Z,6.80
2018-12-10T11:19:40.144Z,7.00
2018-12-10T11:22:09.129Z,7.20
2018-12-10T11:24:38.096Z,7.20
2018-12-10T11:27:07.082Z,7.20
2018-12-10T11:29:37.057Z,7.30
2018-12-10T11:32:06.025Z,7.40
2018-12-10T11:34:35.003Z,7.20
2018-12-10T11:37:04.126Z,7.20
2018-12-10T11:39:33.143Z,7.10
2018-12-10T11:42:02.104Z,7.10
2018-12-10T11:44:31.023Z,7.10
2018-12-10T11:46:59.964Z,7.00
2018-12-10T11:49:28.992Z,7.00
2018-12-10T11:51:57.938Z,7.00
2018-12-10T11:54:26.858Z,7.10
2018-12-10T11:56:55.891Z,7.10
2018-12-10T11:59:24.826Z,7.20
2018-12-10T12:01:53.802Z,7.20
2018-12-10T12:04:22.723Z,7.20
2018-12-10T12:06:51.686Z,7.20
2018-12-10T12:09:20.626Z,7.00
2018-12-10T12:11:49.556Z,7.00
2018-12-10T12:14:18.506Z,7.00
2018-12-10T12:16:47.472Z,7.20
2018-12-10T12:19:16.383Z,7.30
2018-12-10T12:21:45.367Z,7.30
2018-12-10T12:24:14.274Z,7.40
2018-12-10T12:26:43.218Z,7.30
2018-12-10T12:29:12.154Z,7.30
2018-12-10T12:31:41.115Z,7.10
2018-12-10T12:34:10.122Z,7.10
2018-12-10T12:36:39.121Z,7.20
2018-12-10T12:39:08.212Z,6.90
2018-12-10T12:41:37.178Z,7.00
2018-12-10T12:44:06.186Z,7.00
2018-12-10T12:46:35.155Z,7.00
2018-12-10T12:49:04.208Z,7.10
2018-12-10T12:51:33.172Z,7.20
2018-12-10T12:54:02.140Z,7.20
2018-12-10T12:56:31.158Z,7.20
2018-12-10T12:59:00.107Z,7.20
2018-12-10T13:01:29.213Z,7.20
2018-12-10T13:03:58.189Z,7.10
2018-12-10T13:06:27.166Z,7.10
2018-12-10T13:08:56.091Z,7.10
2018-12-10T13:11:25.006Z,7.10
2018-12-10T13:13:54.085Z,7.10
2018-12-10T13:16:23.289Z,7.00
2018-12-10T13:18:52.551Z,7.10
2018-12-10T13:21:21.709Z,7.00
2018-12-10T13:23:50.871Z,7.00
2018-12-10T13:26:20.083Z,6.90
2018-12-10T13:28:49.252Z,6.90
2018-12-10T13:31:18.493Z,7.00
2018-12-10T13:33:47.691Z,7.00
2018-12-10T13:36:16.868Z,7.10
2018-12-10T13:38:46.089Z,7.10
2018-12-10T13:41:15.280Z,7.20
2018-12-10T13:43:44.427Z,7.00
2018-12-10T13:46:13.572Z,7.10
2018-12-10T13:48:42.803Z,7.10
2018-12-10T13:51:11.782Z,7.00
2018-12-10T13:53:40.744Z,7.00
2018-12-10T13:56:09.713Z,6.90
2018-12-10T13:58:38.754Z,6.90
2018-12-10T14:01:08.270Z,6.80
2018-12-10T14:06:08.183Z,6.80
2018-12-10T14:08:37.116Z,6.80
2018-12-10T14:11:06.480Z,6.80
2018-12-10T14:13:35.494Z,6.80
2018-12-10T14:16:04.689Z,6.70
2018-12-10T14:18:33.663Z,6.70
2018-12-10T14:21:02.735Z,6.70
2018-12-10T14:23:38.173Z,6.60
2018-12-10T14:26:07.162Z,6.60
2018-12-10T14:28:36.111Z,6.50
2018-12-10T14:31:05.070Z,6.50
2018-12-10T14:36:05.341Z,6.60
2018-12-10T14:38:34.290Z,6.70
2018-12-10T14:41:03.394Z,6.50
2018-12-10T14:43:32.398Z,6.40
2018-12-10T14:46:01.355Z,6.50
2018-12-10T14:48:30.414Z,6.40
2018-12-10T14:50:59.345Z,6.60
2018-12-10T14:53:28.293Z,6.60
2018-12-10T14:55:57.273Z,6.60
2018-12-10T14:58:26.212Z,6.60
2018-12-10T15:00:55.229Z,6.60
2018-12-10T15:03:24.175Z,6.60
2018-12-10T15:05:53.249Z,6.60
2018-12-10T15:08:22.182Z,6.60
2018-12-10T15:10:51.180Z,6.60
2018-12-10T15:13:23.351Z,6.60
2018-12-10T15:15:52.295Z,6.60
2018-12-10T15:18:21.229Z,6.50
2018-12-10T15:20:50.207Z,6.50
2018-12-10T15:23:19.129Z,6.40
2018-12-10T15:25:48.459Z,6.30
2018-12-10T15:28:17.404Z,6.40
2018-12-10T15:30:46.383Z,6.40
2018-12-10T15:33:15.288Z,6.40
2018-12-10T15:35:44.318Z,6.40
2018-12-10T15:38:13.367Z,6.40
2018-12-10T15:40:42.421Z,6.30
2018-12-10T15:43:11.386Z,6.20
2018-12-10T15:45:40.359Z,6.20
2018-12-10T15:48:09.299Z,6.10
2018-12-10T15:50:39.023Z,6.10
2018-12-10T15:53:07.979Z,6.00
2018-12-10T15:55:36.942Z,6.00
2018-12-10T15:58:05.877Z,6.00
2018-12-10T16:00:35.072Z,6.00
2018-12-10T16:03:04.046Z,5.90
2018-12-10T16:05:33.040Z,5.90
2018-12-10T16:08:02.015Z,6.00
2018-12-10T16:10:30.974Z,5.90
2018-12-10T16:12:59.973Z,5.80
2018-12-10T16:15:28.932Z,5.90
2018-12-10T16:17:57.917Z,5.90
2018-12-10T16:20:26.885Z,6.00
2018-12-10T16:22:57.018Z,5.90
2018-12-10T16:25:26.006Z,5.90
2018-12-10T16:27:55.036Z,6.00
2018-12-10T16:30:24.223Z,6.00
2018-12-10T16:32:53.749Z,6.20
2018-12-10T16:35:22.784Z,6.10
2018-12-10T16:37:51.730Z,6.20
2018-12-10T16:40:20.712Z,6.20
2018-12-10T16:42:49.652Z,6.10
2018-12-10T16:45:18.650Z,6.10
2018-12-10T16:47:47.619Z,6.20
2018-12-10T16:50:16.562Z,6.00
2018-12-10T16:52:45.504Z,6.10
2018-12-10T16:55:14.467Z,6.00
2018-12-10T16:57:43.453Z,6.10
2018-12-10T17:00:13.374Z,6.20
2018-12-10T17:02:42.365Z,6.20
2018-12-10T17:05:11.309Z,6.20
2018-12-10T17:07:40.266Z,6.10
2018-12-10T17:10:10.421Z,6.10
2018-12-10T17:12:39.412Z,6.10
2018-12-10T17:15:08.366Z,6.00
2018-12-10T17:17:37.347Z,6.00
2018-12-10T17:20:07.039Z,6.00
2018-12-10T17:22:36.019Z,6.00
2018-12-10T17:25:05.566Z,5.90
2018-12-10T17:27:34.569Z,5.90
2018-12-10T17:30:03.607Z,5.80
2018-12-10T17:32:32.590Z,5.80
2018-12-10T17:35:01.601Z,5.80
2018-12-10T17:37:30.688Z,5.80
2018-12-10T17:39:59.905Z,5.90
2018-12-10T17:42:28.858Z,5.90
2018-12-10T17:45:01.784Z,5.90
2018-12-10T17:47:33.091Z,5.90
2018-12-10T17:50:02.351Z,5.90
2018-12-10T17:52:35.133Z,5.80
2018-12-10T17:55:06.449Z,5.80
2018-12-10T17:57:36.653Z,5.80
2018-12-10T18:00:08.910Z,5.90
2018-12-10T18:02:38.087Z,5.80
2018-12-10T18:05:07.327Z,5.60
2018-12-10T18:07:36.503Z,5.70
2018-12-10T18:10:06.102Z,5.80
2018-12-10T18:12:35.065Z,5.80
2018-12-10T18:15:04.609Z,5.80
2018-12-10T18:17:33.605Z,5.80
2018-12-10T18:20:02.546Z,5.80
2018-12-10T18:22:31.610Z,5.90
2018-12-10T18:25:00.594Z,5.70
2018-12-10T18:27:29.574Z,5.70
2018-12-10T18:29:58.670Z,5.60
2018-12-10T18:32:27.614Z,5.70
2018-12-10T18:34:57.451Z,5.90
2018-12-10T18:37:26.390Z,6.00
2018-12-10T18:39:55.438Z,6.00
2018-12-10T18:42:24.404Z,6.20
2018-12-10T18:44:53.430Z,6.10
2018-12-10T18:47:22.414Z,6.00
2018-12-10T18:49:51.499Z,5.80
2018-12-10T18:52:20.573Z,5.80
2018-12-10T18:54:49.574Z,5.80
2018-12-10T18:57:18.800Z,5.80
2018-12-10T18:59:47.966Z,5.70
2018-12-10T19:02:16.921Z,5.70
2018-12-10T19:04:46.030Z,5.70
2018-12-10T19:07:15.043Z,5.60
2018-12-10T19:09:44.107Z,5.70
2018-12-10T19:12:14.119Z,5.80
2018-12-10T19:14:43.123Z,5.80
2018-12-10T19:17:12.578Z,5.80
2018-12-10T19:19:41.632Z,5.90
2018-12-10T19:22:10.644Z,5.90
2018-12-10T19:24:39.620Z,5.90
2018-12-10T19:27:08.561Z,5.80
2018-12-10T19:29:37.577Z,5.80
2018-12-10T19:32:06.526Z,5.90
2018-12-10T19:37:04.090Z,6.00
2018-12-10T19:39:33.157Z,5.90
2018-12-10T19:42:02.347Z,5.80
2018-12-10T19:44:31.601Z,5.80
2018-12-10T19:47:00.615Z,5.80
2018-12-10T19:49:29.710Z,5.90
2018-12-10T19:51:58.646Z,5.90
2018-12-10T19:54:27.596Z,6.00
2018-12-10T19:56:56.543Z,6.00
2018-12-10T19:59:25.520Z,6.00
2018-12-10T20:01:54.452Z,5.70
2018-12-10T20:04:23.399Z,5.80
2018-12-10T20:06:57.820Z,5.80
2018-12-10T20:09:26.783Z,5.80
2018-12-10T20:11:56.492Z,5.70
2018-12-10T20:14:25.463Z,5.90
2018-12-10T20:16:54.378Z,6.00
2018-12-10T20:19:23.418Z,6.00
2018-12-10T20:21:52.430Z,6.00
2018-12-10T20:24:21.361Z,5.90
2018-12-10T20:26:50.667Z,6.10
2018-12-10T20:29:19.892Z,6.20
2018-12-10T20:31:48.957Z,6.20
2018-12-10T20:34:18.112Z,6.10
2018-12-10T20:36:47.073Z,6.10
2018-12-10T20:39:16.036Z,6.10
2018-12-10T20:41:45.153Z,6.10
2018-12-10T20:44:14.116Z,6.10
2018-12-10T20:46:43.065Z,6.20
2018-12-10T20:49:12.182Z,6.00
2018-12-10T20:51:41.148Z,5.90
2018-12-10T20:54:10.060Z,6.00
2018-12-10T20:56:39.030Z,6.00
2018-12-10T20:59:08.021Z,6.10
2018-12-10T21:01:37.140Z,6.10
2018-12-10T21:04:06.075Z,6.10
2018-12-10T21:06:36.254Z,6.20
2018-12-10T21:09:07.906Z,6.20
2018-12-10T21:11:37.717Z,6.20
2018-12-10T21:14:06.687Z,6.20
2018-12-10T21:16:35.682Z,6.20
2018-12-10T21:19:04.703Z,6.20
2018-12-10T21:21:33.837Z,6.20
2018-12-10T21:24:02.752Z,6.20
2018-12-10T21:26:31.752Z,6.20
2018-12-10T21:29:00.744Z,6.20
2018-12-10T21:31:29.899Z,6.20
2018-12-10T21:33:58.885Z,6.30
2018-12-10T21:36:27.958Z,6.30
2018-12-10T21:38:56.914Z,6.20
2018-12-10T21:41:25.926Z,6.30
2018-12-10T21:43:54.848Z,6.30
2018-12-10T21:46:23.862Z,6.20
2018-12-10T21:48:52.787Z,6.20
2018-12-10T21:51:21.743Z,6.10
2018-12-10T21:53:50.785Z,6.10
2018-12-10T21:56:19.810Z,6.00
2018-12-10T21:58:48.773Z,6.00
2018-12-10T22:01:17.799Z,6.00
2018-12-10T22:03:46.721Z,6.00
2018-12-10T22:06:15.633Z,5.90
2018-12-10T22:08:44.613Z,5.90
2018-12-10T22:11:13.547Z,5.90
2018-12-10T22:13:42.499Z,5.90
2018-12-10T22:16:11.461Z,5.90
2018-12-10T22:18:40.532Z,5.90
2018-12-10T22:21:09.524Z,5.90
2018-12-10T22:23:38.458Z,5.90
2018-12-10T22:26:07.381Z,6.00
2018-12-10T22:28:36.377Z,6.00
2018-12-10T22:31:05.433Z,6.00
2018-12-10T22:33:34.388Z,6.10
2018-12-10T22:36:03.363Z,6.20
2018-12-10T22:38:32.376Z,6.20
2018-12-10T22:41:01.301Z,6.20
2018-12-10T22:43:30.322Z,6.20
2018-12-10T22:45:59.335Z,6.10
2018-12-10T22:48:28.308Z,6.20
2018-12-10T22:50:57.369Z,6.20
2018-12-10T22:53:26.315Z,6.20
2018-12-10T22:55:55.369Z,6.30
2018-12-10T22:58:24.347Z,6.20
2018-12-10T23:00:53.273Z,6.30
2018-12-10T23:03:22.210Z,6.20
2018-12-10T23:05:51.614Z,6.20
2018-12-10T23:08:20.613Z,6.10
2018-12-10T23:10:49.552Z,6.10
2018-12-10T23:13:18.500Z,6.10
2018-12-10T23:15:47.519Z,6.10
2018-12-10T23:18:16.512Z,6.10
2018-12-10T23:20:45.445Z,6.10
2018-12-10T23:23:14.400Z,6.10
2018-12-10T23:25:43.367Z,6.10
2018-12-10T23:28:12.312Z,6.20
2018-12-10T23:30:41.373Z,6.10
2018-12-10T23:33:10.293Z,6.10
2018-12-10T23:35:39.286Z,6.10
2018-12-10T23:38:08.220Z,6.00
2018-12-10T23:40:37.293Z,6.00
2018-12-10T23:43:11.568Z,6.10
2018-12-10T23:45:40.533Z,6.10
2018-12-10T23:48:09.590Z,6.20
2018-12-10T23:50:38.610Z,6.20
2018-12-10T23:53:07.568Z,6.20
2018-12-10T23:55:36.541Z,6.30
2018-12-10T23:58:05.465Z,6.30
